createdAt,value
2022-11-03T00:01:39.862Z,100918.34
2022-11-03T00:04:08.565Z,100924.19
2022-11-03T00:06:36.073Z,100920.34
2022-11-03T00:09:05.825Z,100915.81
2022-11-03T00:11:34.260Z,100921.19
2022-11-03T00:14:00.954Z,100921.22
2022-11-03T00:16:27.957Z,100916.88
2022-11-03T00:18:54.799Z,100910.88
2022-11-03T00:21:22.727Z,100907.19
2022-11-03T00:23:49.674Z,100905.53
2022-11-03T00:26:21.511Z,100899.81
2022-11-03T00:28:54.036Z,100891.63
2022-11-03T00:31:26.071Z,100892.19
2022-11-03T00:33:54.409Z,100881.06
2022-11-03T00:36:27.167Z,100878.84
2022-11-03T00:38:55.197Z,100879.28
2022-11-03T00:41:24.869Z,100868.59
2022-11-03T00:43:53.796Z,100867.97
2022-11-03T00:46:26.463Z,100864.97
2022-11-03T00:48:59.564Z,100858.28
2022-11-03T00:51:33.997Z,100861.06
2022-11-03T00:54:02.370Z,100860.63
2022-11-03T00:56:29.953Z,100861.31
2022-11-03T00:58:58.426Z,100861.47
2022-11-03T01:01:26.225Z,100865.53
2022-11-03T01:04:14.491Z,100865.78
2022-11-03T01:06:53.369Z,100860.84
2022-11-03T01:09:27.530Z,100866.56
2022-11-03T01:12:10.333Z,100858.88
2022-11-03T01:14:45.281Z,100864.28
2022-11-03T01:17:23.726Z,100851.03
2022-11-03T01:19:51.148Z,100849.28
2022-11-03T01:22:18.886Z,100852.91
2022-11-03T01:24:45.988Z,100852.09
2022-11-03T01:27:15.543Z,100848.34
2022-11-03T01:29:42.408Z,100843.91
2022-11-03T01:32:09.420Z,100854.66
2022-11-03T01:34:36.475Z,100847.84
2022-11-03T01:37:03.375Z,100846.22
2022-11-03T01:39:30.024Z,100842.47
2022-11-03T01:41:56.645Z,100837.91
2022-11-03T01:44:23.205Z,100830.69
2022-11-03T01:47:12.241Z,100829.97
2022-11-03T01:49:42.230Z,100811.22
2022-11-03T01:52:15.657Z,100820.00
2022-11-03T01:54:46.379Z,100818.94
2022-11-03T01:57:17.049Z,100816.78
2022-11-03T01:59:46.265Z,100806.47
2022-11-03T02:02:18.499Z,100808.72
2022-11-03T02:04:45.529Z,100800.28
2022-11-03T02:07:27.031Z,100796.31
2022-11-03T02:09:53.668Z,100795.13
2022-11-03T02:12:21.956Z,100791.50
2022-11-03T02:14:55.210Z,100791.03
2022-11-03T02:17:24.029Z,100781.13
2022-11-03T02:20:04.007Z,100777.16
2022-11-03T02:23:03.157Z,100771.75
2022-11-03T02:25:37.712Z,100771.66
2022-11-03T02:28:06.249Z,100765.47
2022-11-03T02:30:41.796Z,100764.03
2022-11-03T02:33:15.028Z,100751.88
2022-11-03T02:36:08.851Z,100746.97
2022-11-03T02:38:42.066Z,100748.13
2022-11-03T02:41:09.547Z,100748.28
2022-11-03T02:43:37.794Z,100728.31
2022-11-03T02:46:06.153Z,100730.63
2022-11-03T02:48:32.946Z,100725.72
2022-11-03T02:50:59.550Z,100723.25
2022-11-03T02:53:29.653Z,100726.63
2022-11-03T02:56:16.727Z,100721.16
2022-11-03T02:58:53.222Z,100709.34
2022-11-03T03:01:25.766Z,100707.47
2022-11-03T03:03:55.711Z,100701.19
2022-11-03T03:06:37.951Z,100699.16
2022-11-03T03:09:10.326Z,100690.38
2022-11-03T03:11:41.034Z,100691.09
2022-11-03T03:14:38.828Z,100692.22
2022-11-03T03:17:13.175Z,100684.66
2022-11-03T03:19:48.648Z,100692.88
2022-11-03T03:22:44.446Z,100680.25
2022-11-03T03:25:17.130Z,100673.81
2022-11-03T03:27:48.551Z,100669.75
2022-11-03T03:30:15.944Z,100664.38
2022-11-03T03:32:47.374Z,100660.81
2022-11-03T03:35:18.749Z,100665.16
2022-11-03T03:37:50.078Z,100663.03
2022-11-03T03:40:22.751Z,100661.59
2022-11-03T03:42:51.512Z,100655.91
2022-11-03T03:45:20.184Z,100654.75
2022-11-03T03:47:48.064Z,100648.81
2022-11-03T03:50:15.020Z,100650.44
2022-11-03T03:52:41.609Z,100646.44
2022-11-03T03:55:17.225Z,100645.38
2022-11-03T03:57:46.149Z,100636.25
2022-11-03T04:00:18.640Z,100635.78
2022-11-03T04:02:50.624Z,100640.25
2022-11-03T04:05:19.997Z,100636.25
2022-11-03T04:07:49.728Z,100635.44
2022-11-03T04:10:17.495Z,100632.75
2022-11-03T04:13:03.620Z,100631.59
2022-11-03T04:15:50.058Z,100630.22
2022-11-03T04:18:36.428Z,100626.47
2022-11-03T04:21:22.320Z,100623.00
2022-11-03T04:23:49.246Z,100617.16
2022-11-03T04:26:22.831Z,100622.19
2022-11-03T04:28:51.982Z,100621.91
2022-11-03T04:31:20.103Z,100610.03
2022-11-03T04:33:47.962Z,100611.91
2022-11-03T04:36:19.710Z,100604.91
2022-11-03T04:38:47.507Z,100601.97
2022-11-03T04:41:20.947Z,100607.78
2022-11-03T04:43:48.139Z,100594.97
2022-11-03T04:46:27.892Z,100601.75
2022-11-03T04:49:01.973Z,100605.41
2022-11-03T04:51:33.038Z,100600.94
2022-11-03T04:54:03.609Z,100590.84
2022-11-03T04:56:30.579Z,100597.53
2022-11-03T04:58:58.106Z,100591.66
2022-11-03T05:01:25.299Z,100599.63
2022-11-03T05:03:54.224Z,100593.00
2022-11-03T05:06:22.111Z,100592.94
2022-11-03T05:08:53.149Z,100585.69
2022-11-03T05:11:24.177Z,100576.69
2022-11-03T05:13:52.310Z,100579.44
2022-11-03T05:16:18.961Z,100564.97
2022-11-03T05:18:49.570Z,100566.97
2022-11-03T05:21:19.549Z,100557.38
2022-11-03T05:23:50.423Z,100555.84
2022-11-03T05:26:22.535Z,100556.31
2022-11-03T05:28:53.401Z,100559.47
2022-11-03T05:31:25.091Z,100561.13
2022-11-03T05:33:53.370Z,100550.91
2022-11-03T05:36:25.383Z,100550.47
2022-11-03T05:38:56.179Z,100550.44
2022-11-03T05:41:29.149Z,100547.69
2022-11-03T05:44:02.923Z,100542.66
2022-11-03T05:46:33.118Z,100531.91
2022-11-03T05:49:02.761Z,100533.91
2022-11-03T05:51:34.037Z,100526.75
2022-11-03T05:54:04.449Z,100521.72
2022-11-03T05:56:33.038Z,100507.81
2022-11-03T05:59:01.643Z,100508.09
2022-11-03T06:01:38.816Z,100504.38
2022-11-03T06:04:37.365Z,100498.53
2022-11-03T06:07:16.086Z,100493.97
2022-11-03T06:09:43.952Z,100495.25
2022-11-03T06:12:17.995Z,100482.66
2022-11-03T06:14:45.401Z,100490.25
2022-11-03T06:17:27.606Z,100498.50
2022-11-03T06:19:57.462Z,100499.53
2022-11-03T06:22:27.642Z,100505.72
2022-11-03T06:25:19.037Z,100511.22
2022-11-03T06:27:45.682Z,100510.13
2022-11-03T06:30:25.717Z,100506.97
2022-11-03T06:32:53.707Z,100495.00
2022-11-03T06:35:20.308Z,100494.25
2022-11-03T06:37:47.086Z,100482.34
2022-11-03T06:40:13.588Z,100484.31
2022-11-03T06:42:40.359Z,100472.75
2022-11-03T06:45:26.189Z,100472.34
2022-11-03T06:47:54.521Z,100475.66
2022-11-03T06:50:27.672Z,100471.50
2022-11-03T06:52:56.046Z,100473.81
2022-11-03T06:55:31.085Z,100465.00
2022-11-03T06:58:00.304Z,100471.44
2022-11-03T07:00:34.765Z,100459.00
2022-11-03T07:03:08.715Z,100470.34
2022-11-03T07:05:36.632Z,100455.53
2022-11-03T07:08:14.446Z,100435.78
2022-11-03T07:10:41.094Z,100436.25
2022-11-03T07:13:15.697Z,100442.38
2022-11-03T07:15:43.887Z,100442.97
2022-11-03T07:18:34.799Z,100448.94
2022-11-03T07:21:16.559Z,100451.16
2022-11-03T07:23:46.261Z,100446.47
2022-11-03T07:26:14.006Z,100443.03
2022-11-03T07:28:40.748Z,100440.72
2022-11-03T07:31:16.893Z,100441.66
2022-11-03T07:33:43.958Z,100431.91
2022-11-03T07:36:18.273Z,100424.03
2022-11-03T07:38:47.667Z,100429.56
2022-11-03T07:41:23.222Z,100422.31
2022-11-03T07:43:58.645Z,100419.06
2022-11-03T07:46:26.735Z,100408.06
2022-11-03T07:48:56.868Z,100417.09
2022-11-03T07:51:54.513Z,100407.09
2022-11-03T07:54:24.699Z,100401.38
2022-11-03T07:57:14.879Z,100377.25
2022-11-03T07:59:52.009Z,100364.69
2022-11-03T08:02:40.605Z,100366.41
2022-11-03T08:05:16.900Z,100363.50
2022-11-03T08:07:53.092Z,100365.66
2022-11-03T08:10:23.706Z,100366.00
2022-11-03T08:12:51.346Z,100364.34
2022-11-03T08:15:17.936Z,100352.16
2022-11-03T08:17:44.570Z,100346.69
2022-11-03T08:20:11.649Z,100343.66
2022-11-03T08:22:38.262Z,100339.09
2022-11-03T08:25:05.402Z,100344.00
2022-11-03T08:27:32.041Z,100336.06
2022-11-03T08:29:58.714Z,100349.03
2022-11-03T08:32:25.383Z,100347.97
2022-11-03T08:34:51.984Z,100356.94
2022-11-03T08:37:18.735Z,100341.78
2022-11-03T08:39:45.300Z,100349.66
2022-11-03T08:42:11.924Z,100340.75
2022-11-03T08:44:38.529Z,100343.59
2022-11-03T08:47:05.110Z,100348.09
2022-11-03T08:49:31.719Z,100352.06
2022-11-03T08:51:58.317Z,100341.78
2022-11-03T08:54:24.915Z,100337.09
2022-11-03T08:56:51.510Z,100330.38
2022-11-03T08:59:18.340Z,100318.47
2022-11-03T09:01:45.043Z,100320.66
2022-11-03T09:04:12.004Z,100307.19
2022-11-03T09:06:38.700Z,100311.06
2022-11-03T09:11:51.940Z,100316.22
2022-11-03T09:14:18.615Z,100314.97
2022-11-03T09:16:45.373Z,100313.28
2022-11-03T09:19:11.974Z,100308.91
2022-11-03T09:21:38.587Z,100302.69
2022-11-03T09:24:05.660Z,100301.66
2022-11-03T09:26:32.290Z,100300.75
2022-11-03T09:28:59.008Z,100298.66
2022-11-03T09:31:28.292Z,100289.66
2022-11-03T09:33:55.376Z,100288.28
2022-11-03T09:36:22.066Z,100271.22
2022-11-03T09:38:48.784Z,100275.66
2022-11-03T09:41:35.162Z,100266.13
2022-11-03T09:44:04.632Z,100267.31
2022-11-03T09:46:31.786Z,100255.53
2022-11-03T09:48:59.065Z,100256.59
2022-11-03T09:51:27.802Z,100253.22
2022-11-03T09:54:01.874Z,100247.47
2022-11-03T09:56:28.701Z,100254.72
2022-11-03T09:58:55.331Z,100229.75
2022-11-03T10:01:22.782Z,100223.91
2022-11-03T10:03:50.166Z,100213.47
2022-11-03T10:06:17.553Z,100212.16
2022-11-03T10:08:46.127Z,100221.69
2022-11-03T10:11:13.448Z,100222.22
2022-11-03T10:13:43.113Z,100222.53
2022-11-03T10:16:13.774Z,100209.66
2022-11-03T10:18:41.007Z,100200.13
2022-11-03T10:21:16.280Z,100206.19
2022-11-03T10:23:42.924Z,100202.47
2022-11-03T10:26:17.676Z,100197.69
2022-11-03T10:29:01.871Z,100196.19
2022-11-03T10:31:35.629Z,100188.59
2022-11-03T10:34:03.036Z,100174.56
2022-11-03T10:36:32.190Z,100174.03
2022-11-03T10:38:58.996Z,100163.19
2022-11-03T10:41:30.729Z,100151.91
2022-11-03T10:44:01.810Z,100157.03
2022-11-03T10:46:49.087Z,100151.94
2022-11-03T10:49:19.137Z,100148.41
2022-11-03T10:51:49.288Z,100141.34
2022-11-03T10:54:18.698Z,100142.19
2022-11-03T10:56:47.049Z,100122.13
2022-11-03T10:59:19.326Z,100120.25
2022-11-03T11:01:48.083Z,100109.38
2022-11-03T11:04:23.354Z,100111.25
2022-11-03T11:06:54.324Z,100111.91
2022-11-03T11:09:28.144Z,100110.84
2022-11-03T11:12:18.564Z,100099.50
2022-11-03T11:14:57.767Z,100089.56
2022-11-03T11:17:47.953Z,100095.75
2022-11-03T11:20:25.578Z,100083.88
2022-11-03T11:22:56.769Z,100077.69
2022-11-03T11:26:14.300Z,100073.09
2022-11-03T11:28:49.235Z,100084.66
2022-11-03T11:31:33.332Z,100083.59
2022-11-03T11:34:09.957Z,100083.34
2022-11-03T11:36:46.746Z,100077.38
2022-11-03T11:39:23.455Z,100078.47
2022-11-03T11:42:15.581Z,100069.84
2022-11-03T11:44:50.615Z,100072.50
2022-11-03T11:47:23.100Z,100071.94
2022-11-03T11:50:17.049Z,100067.31
2022-11-03T11:52:48.590Z,100052.50
2022-11-03T11:55:24.605Z,100046.63
2022-11-03T11:57:55.343Z,100033.66
2022-11-03T12:00:30.565Z,100035.00
2022-11-03T12:03:01.782Z,100032.78
2022-11-03T12:05:33.236Z,100016.81
2022-11-03T12:08:06.131Z,100013.88
2022-11-03T12:10:34.235Z,100004.47
2022-11-03T12:13:03.598Z,100000.94
2022-11-03T12:16:11.945Z,99976.94
2022-11-03T12:18:50.184Z,99981.84
2022-11-03T12:21:47.867Z,99973.47
2022-11-03T12:24:49.097Z,99970.25
2022-11-03T12:27:25.610Z,99960.28
2022-11-03T12:29:56.542Z,99958.63
2022-11-03T12:32:34.099Z,99951.63
2022-11-03T12:35:05.379Z,99954.31
2022-11-03T12:37:33.441Z,99960.25
2022-11-03T12:40:03.801Z,99965.91
2022-11-03T12:42:35.157Z,99958.66
2022-11-03T12:45:08.923Z,99947.84
2022-11-03T12:47:39.787Z,99941.91
2022-11-03T12:50:10.197Z,99943.53
2022-11-03T12:52:38.291Z,99928.94
2022-11-03T12:55:08.105Z,99921.94
2022-11-03T12:57:35.749Z,99917.63
2022-11-03T13:00:08.833Z,99910.34
2022-11-03T13:02:39.614Z,99904.16
2022-11-03T13:05:18.321Z,99900.63
2022-11-03T13:07:46.644Z,99886.06
2022-11-03T13:10:13.895Z,99885.25
2022-11-03T13:12:45.379Z,99875.50
2022-11-03T13:15:16.027Z,99865.81
2022-11-03T13:18:11.631Z,99859.31
2022-11-03T13:20:32.706Z,99843.69
2022-11-03T13:23:02.532Z,99819.16
2022-11-03T13:25:30.769Z,99814.84
2022-11-03T13:28:03.178Z,99804.31
2022-11-03T13:30:30.970Z,99783.84
2022-11-03T13:32:59.225Z,99790.56
2022-11-03T13:35:27.585Z,99776.81
2022-11-03T13:37:56.630Z,99760.63
2022-11-03T13:40:54.854Z,99753.84
2022-11-03T13:43:14.747Z,99753.06
2022-11-03T13:45:42.749Z,99750.63
2022-11-03T13:51:00.265Z,99748.72
2022-11-03T13:56:21.701Z,99741.44
2022-11-03T14:01:45.599Z,99728.53
2022-11-03T14:07:02.600Z,99728.44
2022-11-03T14:09:32.630Z,99729.81
2022-11-03T14:12:21.839Z,99723.22
2022-11-03T14:14:50.041Z,99710.56
2022-11-03T14:17:21.941Z,99706.59
2022-11-03T14:19:53.090Z,99710.84
2022-11-03T14:22:21.546Z,99702.69
2022-11-03T14:24:51.475Z,99710.03
2022-11-03T14:27:20.182Z,99690.97
2022-11-03T14:29:54.332Z,99687.47
2022-11-03T14:32:23.066Z,99685.34
2022-11-03T14:34:51.943Z,99675.41
2022-11-03T14:37:20.083Z,99670.53
2022-11-03T14:39:54.188Z,99660.50
2022-11-03T14:42:21.390Z,99652.44
2022-11-03T14:44:50.321Z,99644.09
2022-11-03T14:47:26.648Z,99642.47
2022-11-03T14:49:53.840Z,99641.06
2022-11-03T14:52:22.094Z,99634.00
2022-11-03T14:54:51.351Z,99618.72
2022-11-03T14:57:19.611Z,99624.97
2022-11-03T14:59:53.423Z,99629.50
2022-11-03T15:02:23.036Z,99614.09
2022-11-03T15:04:50.891Z,99612.53
2022-11-03T15:07:20.304Z,99614.75
2022-11-03T15:09:47.619Z,99616.28
2022-11-03T15:12:16.687Z,99617.41
2022-11-03T15:14:49.932Z,99607.28
2022-11-03T15:17:19.228Z,99614.19
2022-11-03T15:19:46.461Z,99620.22
2022-11-03T15:22:15.817Z,99624.38
2022-11-03T15:27:39.731Z,99609.50
2022-11-03T15:30:11.079Z,99616.59
2022-11-03T15:32:38.534Z,99603.06
2022-11-03T15:35:06.701Z,99602.69
2022-11-03T15:37:33.560Z,99606.19
2022-11-03T15:40:01.752Z,99592.47
2022-11-03T15:42:29.814Z,99586.63
2022-11-03T15:44:56.707Z,99570.59
2022-11-03T15:47:23.668Z,99557.25
2022-11-03T15:49:55.338Z,99550.47
2022-11-03T15:52:24.777Z,99548.03
2022-11-03T15:54:53.945Z,99547.00
2022-11-03T15:57:25.466Z,99546.22
2022-11-03T15:59:57.951Z,99536.03
2022-11-03T16:02:41.016Z,99522.31
2022-11-03T16:05:12.730Z,99518.53
2022-11-03T16:07:40.861Z,99519.25
2022-11-03T16:10:09.356Z,99522.88
2022-11-03T16:12:41.865Z,99513.94
2022-11-03T16:15:11.825Z,99514.81
2022-11-03T16:17:45.191Z,99510.88
2022-11-03T16:20:13.227Z,99518.16
2022-11-03T16:22:39.879Z,99512.72
2022-11-03T16:25:12.116Z,99512.91
2022-11-03T16:27:40.829Z,99514.66
2022-11-03T16:30:08.033Z,99526.25
2022-11-03T16:32:35.092Z,99526.50
2022-11-03T16:35:01.700Z,99526.00
2022-11-03T16:37:29.733Z,99521.75
2022-11-03T16:39:56.318Z,99529.09
2022-11-03T16:42:22.951Z,99531.59
2022-11-03T16:44:49.593Z,99526.19
2022-11-03T16:47:16.220Z,99514.63
2022-11-03T16:49:42.817Z,99502.97
2022-11-03T16:52:09.512Z,99499.53
2022-11-03T16:54:36.193Z,99497.25
2022-11-03T16:57:02.817Z,99491.94
2022-11-03T16:59:29.545Z,99492.34
2022-11-03T17:01:56.839Z,99476.81
2022-11-03T17:04:23.709Z,99463.66
2022-11-03T17:06:53.134Z,99451.47
2022-11-03T17:09:20.672Z,99449.59
2022-11-03T17:11:47.592Z,99447.91
2022-11-03T17:14:15.205Z,99442.94
2022-11-03T17:16:46.448Z,99443.25
2022-11-03T17:19:17.182Z,99437.25
2022-11-03T17:21:45.037Z,99437.50
2022-11-03T17:24:13.621Z,99435.91
2022-11-03T17:27:04.148Z,99422.56
2022-11-03T17:29:48.025Z,99407.16
2022-11-03T17:32:27.111Z,99405.56
2022-11-03T17:34:54.720Z,99403.50
2022-11-03T17:37:23.028Z,99395.13
2022-11-03T17:39:50.778Z,99394.19
2022-11-03T17:42:28.054Z,99393.53
2022-11-03T17:44:59.005Z,99384.25
2022-11-03T17:47:25.973Z,99379.84
2022-11-03T17:49:54.821Z,99378.69
2022-11-03T17:52:29.086Z,99374.22
2022-11-03T17:54:59.081Z,99386.72
2022-11-03T17:57:28.076Z,99378.50
2022-11-03T17:59:58.786Z,99392.50
2022-11-03T18:02:32.809Z,99395.88
2022-11-03T18:05:22.503Z,99401.34
2022-11-03T18:07:51.223Z,99403.00
2022-11-03T18:10:17.915Z,99405.91
2022-11-03T18:13:08.986Z,99408.69
2022-11-03T18:15:38.292Z,99414.09
2022-11-03T18:18:18.748Z,99392.06
2022-11-03T18:20:53.145Z,99379.09
2022-11-03T18:23:26.580Z,99377.78
2022-11-03T18:25:53.805Z,99380.94
2022-11-03T18:28:20.516Z,99362.19
2022-11-03T18:30:49.521Z,99354.31
2022-11-03T18:33:22.387Z,99362.75
2022-11-03T18:35:49.523Z,99364.81
2022-11-03T18:38:17.544Z,99357.91
2022-11-03T18:40:44.932Z,99353.38
2022-11-03T18:43:13.841Z,99355.84
2022-11-03T18:45:40.664Z,99351.38
2022-11-03T18:48:07.546Z,99346.31
2022-11-03T18:50:35.006Z,99344.44
2022-11-03T18:53:02.039Z,99343.47
2022-11-03T18:55:29.155Z,99360.63
2022-11-03T18:57:57.274Z,99362.03
2022-11-03T19:00:24.640Z,99356.19
2022-11-03T19:02:54.705Z,99365.31
2022-11-03T19:05:24.345Z,99360.66
2022-11-03T19:07:53.497Z,99365.78
2022-11-03T19:10:22.426Z,99375.44
2022-11-03T19:12:51.343Z,99372.03
2022-11-03T19:15:23.084Z,99377.72
2022-11-03T19:17:52.477Z,99364.84
2022-11-03T19:20:19.826Z,99363.94
2022-11-03T19:22:47.562Z,99357.19
2022-11-03T19:25:15.470Z,99361.31
2022-11-03T19:27:46.841Z,99348.38
2022-11-03T19:30:18.136Z,99330.78
2022-11-03T19:32:47.673Z,99327.88
2022-11-03T19:35:19.180Z,99332.69
2022-11-03T19:38:00.997Z,99324.47
2022-11-03T19:40:28.156Z,99324.16
2022-11-03T19:42:56.166Z,99318.28
2022-11-03T19:45:24.391Z,99314.22
2022-11-03T19:50:47.686Z,99297.34
2022-11-03T19:53:28.618Z,99303.09
2022-11-03T19:55:57.622Z,99292.72
2022-11-03T19:58:27.933Z,99293.75
2022-11-03T20:00:55.955Z,99291.72
2022-11-03T20:03:29.178Z,99274.97
2022-11-03T20:05:58.069Z,99283.59
2022-11-03T20:08:27.100Z,99282.53
2022-11-03T20:10:54.095Z,99277.88
2022-11-03T20:13:23.981Z,99274.44
2022-11-03T20:15:57.403Z,99278.31
2022-11-03T20:18:29.714Z,99263.22
2022-11-03T20:20:56.869Z,99264.72
2022-11-03T20:23:31.633Z,99268.97
2022-11-03T20:25:59.455Z,99254.84
2022-11-03T20:28:31.253Z,99260.69
2022-11-03T20:30:59.731Z,99260.78
2022-11-03T20:33:28.659Z,99255.78
2022-11-03T20:35:59.118Z,99255.56
2022-11-03T20:38:27.183Z,99259.06
2022-11-03T20:41:01.265Z,99256.53
2022-11-03T20:43:38.186Z,99239.31
2022-11-03T20:46:22.307Z,99242.97
2022-11-03T20:48:49.907Z,99245.41
2022-11-03T20:51:18.764Z,99228.63
2022-11-03T20:53:48.211Z,99224.66
2022-11-03T20:56:19.753Z,99235.97
2022-11-03T20:58:48.773Z,99241.59
2022-11-03T21:01:19.827Z,99243.41
2022-11-03T21:04:00.186Z,99238.97
2022-11-03T21:06:29.891Z,99239.88
2022-11-03T21:08:57.551Z,99244.34
2022-11-03T21:11:28.261Z,99240.13
2022-11-03T21:13:55.483Z,99257.06
2022-11-03T21:16:45.662Z,99260.31
2022-11-03T21:19:39.675Z,99262.34
2022-11-03T21:25:02.560Z,99281.72
2022-11-03T21:27:30.305Z,99288.59
2022-11-03T21:30:00.434Z,99290.47
2022-11-03T21:32:27.356Z,99294.59
2022-11-03T21:34:53.950Z,99282.47
2022-11-03T21:37:20.729Z,99241.34
2022-11-03T21:39:47.582Z,99215.50
2022-11-03T21:42:33.786Z,99225.31
2022-11-03T21:45:00.780Z,99223.28
2022-11-03T21:47:28.449Z,99240.47
2022-11-03T21:49:55.129Z,99263.94
2022-11-03T21:52:32.024Z,99295.63
2022-11-03T21:55:03.409Z,99308.13
2022-11-03T21:57:31.693Z,99325.50
2022-11-03T21:59:58.732Z,99339.78
2022-11-03T22:02:27.094Z,99331.22
2022-11-03T22:04:56.933Z,99329.59
2022-11-03T22:07:23.688Z,99342.47
2022-11-03T22:09:50.327Z,99347.94
2022-11-03T22:12:16.974Z,99342.56
2022-11-03T22:15:02.137Z,99353.34
2022-11-03T22:17:30.488Z,99348.00
2022-11-03T22:20:15.698Z,99336.69
2022-11-03T22:23:02.543Z,99321.28
2022-11-03T22:25:47.814Z,99350.97
2022-11-03T22:28:15.231Z,99354.50
2022-11-03T22:31:00.842Z,99345.38
2022-11-03T22:33:27.655Z,99341.31
2022-11-03T22:36:21.222Z,99358.81
2022-11-03T22:39:06.637Z,99361.50
2022-11-03T22:41:51.918Z,99373.09
2022-11-03T22:44:37.325Z,99383.88
2022-11-03T22:47:06.886Z,99387.41
2022-11-03T22:49:35.225Z,99393.03
2022-11-03T22:52:01.987Z,99388.47
2022-11-03T22:54:28.609Z,99384.69
2022-11-03T22:56:55.208Z,99382.00
2022-11-03T22:59:21.864Z,99392.78
2022-11-03T23:01:48.574Z,99404.34
2022-11-03T23:04:15.457Z,99404.88
2022-11-03T23:06:42.110Z,99427.22
2022-11-03T23:09:11.206Z,99418.91
2022-11-03T23:11:38.271Z,99431.56
2022-11-03T23:14:10.001Z,99429.13
2022-11-03T23:16:41.359Z,99413.50
2022-11-03T23:19:29.124Z,99419.44
2022-11-03T23:21:56.109Z,99427.19
2022-11-03T23:24:45.087Z,99421.84
2022-11-03T23:27:13.004Z,99425.91
2022-11-03T23:29:40.277Z,99426.41
2022-11-03T23:32:07.036Z,99420.78
2022-11-03T23:34:34.926Z,99436.38
2022-11-03T23:37:02.300Z,99435.31
2022-11-03T23:39:28.949Z,99446.34
2022-11-03T23:41:55.588Z,99455.53
2022-11-03T23:44:22.186Z,99467.06
2022-11-03T23:47:07.409Z,99466.00
2022-11-03T23:49:34.030Z,99472.47
2022-11-03T23:52:00.608Z,99479.22
2022-11-03T23:54:27.325Z,99473.03
2022-11-03T23:57:12.834Z,99476.25
2022-11-03T23:59:39.554Z,99479.47
